Adapazari, Turkey

7:18 AM EEST on October 22, 2014 (GMT +0300)
Topel Air Base | Change Station
CLOSE
Current Station
Airport
Location: Topel,
Elevation: 164 ft
Nearby Weather Stations

Elev 164 ft 40.74 °N, 30.08 °E | Updated 16 minutes ago

Mist
Mist
37 °F
Feels Like 37 °F
N
2
Wind Variable Wind from Variable

Today
High -- | Low -- °F
--% Chance of Precip.
Yesterday
High -- | Low -- °F
Precip. -- in
7:16 AM 6:08 PM
Waning Crescent, 3% visible
Pressure 29.86 in
Visibility 3.1 miles
Clouds
Dew Point 37 °F
Humidity 100%
Rainfall 0.00 in
Snow Depth Not available.
UV Not available.
Pollen Not available.
Air Quality Not available.
Flu Activity Not available.
SPECI LTBQ 220402Z VRB02KT 5000 BR NSC 03/03 Q1011 BECMG FM0500 7000 RMK RWY09 04003KT

More Conditions Fewer Conditions

Pressure 29.86 in
Visibility 3.1 miles
Clouds
Dew Point 37 °F
Humidity 100%
Rainfall 0.00 in
Snow Depth Not available.
UV Not available.
Pollen Not available.
Air Quality Not available.
Flu Activity Not available.
SPECI LTBQ 220402Z VRB02KT 5000 BR NSC 03/03 Q1011 BECMG FM0500 7000 RMK RWY09 04003KT

More Conditions Fewer Conditions

10-Day Weather Forecast

Almanac

Astronomy

Oct. 22, 2014 Rise Set
Actual Time 7:16 AM EEST 6:08 PM EEST
Civil Twilight 6:49 AM EEST 6:35 PM EEST
Nautical Twilight 6:17 AM EEST 7:07 PM EEST
Astronomical Twilight 5:45 AM EEST 7:39 PM EEST
Moon 5:38 AM EEST 5:24 PM EEST
Length of Visible Light 11h 46m
Length of Day
10h 51m
Tomorrow will be 2m 33s shorter.
Waning Crescent, 3% of the Moon is Illuminated
Today
Waning Crescent
Oct 23
New
Oct 30
First Quarter
Nov 6
Full
Nov 14
Last Quarter

Yesterday's Extremes

Country Highs Country Lows

Community

WunderPhotos

Upload Photos

1,763,879 photos uploaded!

Nearby

Snow Depth

Not available.

Earthquake Activity

City Distance Mag. Time & Date
No recent earthquake activity has been reported nearby.
Minimum magnitude displayed is 2.5.

Coastal Water Temperatures

Place Temperature
No Stations Reporting

Nearby Weather Stations